Time;durP1;ratioP1;P1;durP2;ratioP2;P2;SDS_P1;SDS_P2;PMS_P1;PMS_P2;Temp;Humidity;BMP_temperature;BMP_pressure;BME280_temperature;BME280_humidity;BME280_pressure;Samples;Min_cycle;Max_cycle;Signal;HPM_P1;HPM_P2
2023/02/26 00:01:18;;;;;;;7.82;2.70;;;;;;;1.39;73.85;102185.28;6106844;19;20541;-71
2023/02/26 00:03:23;;;;;;;6.55;2.78;;;;;;;1.33;74.58;102187.78;6105822;19;20010;-75
2023/02/26 00:05:27;;;;;;;6.43;2.42;;;;;;;1.37;74.65;102189.59;6106296;19;20025;-75
2023/02/26 00:07:33;;;;;;;8.27;2.83;;;;;;;1.38;75.06;102190.47;6103883;19;20439;-75
2023/02/26 00:09:37;;;;;;;7.97;2.38;;;;;;;1.35;74.80;102190.41;6103567;19;20030;-74
2023/02/26 00:11:42;;;;;;;7.18;2.60;;;;;;;1.29;75.24;102193.72;6104873;19;20010;-74
2023/02/26 00:13:48;;;;;;;4.97;2.10;;;;;;;1.26;75.54;102194.56;6107703;19;20010;-74
2023/02/26 00:16:00;;;;;;;7.35;2.47;;;;;;;1.33;75.42;102199.88;6107890;19;20521;-75
2023/02/26 00:18:15;;;;;;;4.47;2.22;;;;;;;1.30;75.69;102198.09;6105345;19;20471;-72
2023/02/26 00:20:20;;;;;;;6.63;2.88;;;;;;;1.33;75.67;102198.13;6105700;19;20010;-75
2023/02/26 00:22:26;;;;;;;8.88;3.20;;;;;;;1.24;75.98;102197.97;6108587;19;20570;-75
2023/02/26 00:24:31;;;;;;;5.95;2.60;;;;;;;1.23;75.93;102210.03;6110154;19;20375;-75
2023/02/26 00:26:37;;;;;;;3.15;2.13;;;;;;;1.26;76.23;102215.28;6106253;19;20027;-72
2023/02/26 00:28:42;;;;;;;4.15;2.00;;;;;;;1.18;76.01;102215.97;6102908;19;20025;-72
2023/02/26 00:30:49;;;;;;;7.68;2.25;;;;;;;1.22;76.44;102221.22;6106324;19;20522;-71
2023/02/26 00:32:54;;;;;;;6.20;2.60;;;;;;;1.25;76.00;102216.13;6100737;19;20368;-71
2023/02/26 00:35:03;;;;;;;4.63;2.17;;;;;;;1.17;76.57;102225.44;6108129;19;20530;-75
2023/02/26 00:37:19;;;;;;;5.60;2.30;;;;;;;1.20;76.64;102235.00;6106875;19;20017;-71
2023/02/26 00:39:39;;;;;;;9.68;2.58;;;;;;;1.29;77.07;102232.56;6108806;19;20086;-72
2023/02/26 00:41:44;;;;;;;6.03;2.42;;;;;;;1.25;76.56;102242.00;6107424;19;20139;-71
2023/02/26 00:43:50;;;;;;;4.70;2.15;;;;;;;1.25;76.71;102239.41;6105755;19;20019;-75
2023/02/26 00:46:04;;;;;;;7.13;2.10;;;;;;;1.22;76.99;102249.72;6107802;19;20018;-75
2023/02/26 00:48:24;;;;;;;3.28;1.80;;;;;;;1.18;76.91;102245.31;6106067;19;20412;-75
2023/02/26 00:50:33;;;;;;;4.05;2.25;;;;;;;1.15;76.92;102240.06;6103121;19;20014;-72
2023/02/26 00:52:44;;;;;;;7.85;1.95;;;;;;;1.29;76.67;102245.53;6099788;19;20021;-71
2023/02/26 00:54:49;;;;;;;6.65;2.50;;;;;;;1.42;76.37;102244.94;6099801;19;20414;-72
2023/02/26 00:56:56;;;;;;;7.35;2.28;;;;;;;1.47;75.87;102251.06;6106390;19;20110;-71
2023/02/26 00:59:01;;;;;;;4.13;2.03;;;;;;;1.54;75.22;102254.66;6102331;19;20450;-71
2023/02/26 01:01:05;;;;;;;5.03;2.33;;;;;;;1.59;74.99;102255.63;6104309;19;20042;-72
2023/02/26 01:03:12;;;;;;;2.85;2.05;;;;;;;1.60;74.92;102254.78;6102274;19;20013;-71
2023/02/26 01:05:18;;;;;;;4.57;2.50;;;;;;;1.62;74.87;102266.03;6102455;19;20011;-71
2023/02/26 01:07:29;;;;;;;8.85;2.60;;;;;;;1.65;75.01;102260.91;6103232;19;20018;-72
2023/02/26 01:09:37;;;;;;;5.53;2.25;;;;;;;1.72;74.71;102260.19;6099467;19;20007;-72
2023/02/26 01:11:42;;;;;;;6.95;2.20;;;;;;;1.77;74.57;102254.25;6104248;19;20031;-72
2023/02/26 01:13:48;;;;;;;5.75;2.15;;;;;;;1.83;74.39;102265.56;6103534;19;20782;-72
2023/02/26 01:16:00;;;;;;;5.10;2.58;;;;;;;1.86;74.69;102265.63;6104372;19;20458;-72
2023/02/26 01:18:11;;;;;;;4.88;1.73;;;;;;;1.82;74.99;102270.72;6105559;19;20491;-73
2023/02/26 01:20:20;;;;;;;2.88;1.85;;;;;;;1.83;74.62;102269.91;6104456;19;20014;-72
2023/02/26 01:22:32;;;;;;;5.10;2.00;;;;;;;1.93;74.55;102271.81;6104965;19;20032;-72
2023/02/26 01:24:39;;;;;;;8.53;2.00;;;;;;;1.91;74.45;102269.19;6104168;19;20002;-72
2023/02/26 01:26:44;;;;;;;8.15;2.53;;;;;;;1.93;74.37;102274.41;6105908;19;20027;-71
2023/02/26 01:28:52;;;;;;;4.40;2.15;;;;;;;1.87;74.25;102276.88;6097196;19;20027;-72
2023/02/26 01:31:00;;;;;;;5.43;2.25;;;;;;;1.86;74.02;102277.72;6101235;19;20017;-71
2023/02/26 01:33:16;;;;;;;2.63;1.75;;;;;;;1.88;74.12;102286.41;6102873;19;20535;-72
2023/02/26 01:35:34;;;;;;;7.15;2.20;;;;;;;1.85;73.93;102294.13;6103262;19;20034;-72
2023/02/26 01:37:53;;;;;;;6.25;2.60;;;;;;;1.78;74.13;102294.84;6103657;19;20553;-73
2023/02/26 01:40:25;;;;;;;6.30;2.20;;;;;;;1.81;74.03;102302.69;6105346;19;20018;-71
2023/02/26 01:42:33;;;;;;;4.53;2.20;;;;;;;1.84;73.49;102300.13;6107608;19;20366;-72
2023/02/26 01:44:48;;;;;;;7.43;2.08;;;;;;;1.83;73.18;102296.69;6104872;19;20094;-71
2023/02/26 01:47:07;;;;;;;6.30;1.98;;;;;;;1.83;73.36;102298.41;6102680;19;20011;-71
2023/02/26 01:49:17;;;;;;;2.88;1.80;;;;;;;1.81;73.41;102298.38;6106245;19;20006;-71
2023/02/26 01:51:50;;;;;;;3.08;1.90;;;;;;;1.72;73.00;102303.38;6107199;19;20013;-72
2023/02/26 01:53:58;;;;;;;3.17;1.90;;;;;;;1.69;73.33;102306.78;6102258;19;20082;-72
2023/02/26 01:56:06;;;;;;;2.70;1.80;;;;;;;1.67;73.20;102316.25;6104889;19;20015;-72
2023/02/26 01:58:12;;;;;;;4.95;2.13;;;;;;;1.63;73.28;102316.16;6105612;19;20417;-72
2023/02/26 02:00:18;;;;;;;5.80;2.17;;;;;;;1.59;73.60;102316.94;6104568;19;20015;-76
2023/02/26 02:02:25;;;;;;;2.35;1.55;;;;;;;1.56;73.92;102317.75;6103569;19;20053;-74
2023/02/26 02:04:32;;;;;;;3.25;1.67;;;;;;;1.49;73.83;102326.22;6105093;19;20253;-75
2023/02/26 02:06:37;;;;;;;4.18;1.80;;;;;;;1.42;73.94;102326.94;6099847;19;20014;-76
2023/02/26 02:08:42;;;;;;;5.82;1.88;;;;;;;1.42;74.04;102337.31;6098242;19;20098;-75
2023/02/26 02:10:52;;;;;;;3.60;1.90;;;;;;;1.33;74.03;102331.94;6100771;19;20025;-76
2023/02/26 02:13:07;;;;;;;5.97;2.30;;;;;;;1.26;74.74;102342.19;6098225;19;20755;-74
2023/02/26 02:15:16;;;;;;;4.55;2.20;;;;;;;1.23;74.51;102341.22;6099029;19;21229;-75
2023/02/26 02:17:26;;;;;;;5.68;2.28;;;;;;;1.14;74.34;102341.03;6101182;19;20018;-75
2023/02/26 02:19:56;;;;;;;7.30;2.28;;;;;;;1.17;74.79;102348.84;6099695;19;20554;-75
2023/02/26 02:22:21;;;;;;;3.85;1.88;;;;;;;1.12;74.56;102345.28;6099686;19;20108;-75
2023/02/26 02:24:37;;;;;;;2.95;1.70;;;;;;;1.06;74.68;102348.63;6099843;19;20415;-76
2023/02/26 02:27:09;;;;;;;6.65;1.90;;;;;;;0.98;74.96;102350.16;6102731;19;20014;-75
2023/02/26 02:29:33;;;;;;;8.40;1.90;;;;;;;0.91;75.12;102356.88;6097678;19;20015;-75
2023/02/26 02:31:49;;;;;;;4.28;1.70;;;;;;;0.84;74.80;102355.88;6103451;19;20011;-75
2023/02/26 02:33:59;;;;;;;4.80;1.52;;;;;;;0.81;75.14;102357.50;6102761;19;20090;-75
2023/02/26 02:36:09;;;;;;;3.72;2.05;;;;;;;0.73;75.17;102362.50;6101548;19;20086;-72
2023/02/26 02:38:20;;;;;;;4.00;1.80;;;;;;;0.70;75.40;102366.72;6100674;19;20018;-72
2023/02/26 02:40:28;;;;;;;4.63;1.92;;;;;;;0.71;75.07;102365.88;6103118;19;20108;-72
2023/02/26 02:42:37;;;;;;;2.13;1.67;;;;;;;0.62;75.03;102366.53;6104878;19;20059;-72
2023/02/26 02:44:48;;;;;;;6.55;1.95;;;;;;;0.53;75.15;102374.94;6099458;19;20475;-72
2023/02/26 02:46:58;;;;;;;4.25;1.50;;;;;;;0.51;75.08;102375.75;6096328;19;20041;-72
2023/02/26 02:49:06;;;;;;;4.13;1.73;;;;;;;0.47;75.06;102377.34;6100335;19;20093;-73
2023/02/26 02:51:21;;;;;;;5.45;1.90;;;;;;;0.42;75.70;102377.25;6077713;19;20018;-75
2023/02/26 02:53:31;;;;;;;2.15;1.73;;;;;;;0.39;75.50;102378.88;6101139;19;20355;-75
2023/02/26 02:55:40;;;;;;;5.32;1.92;;;;;;;0.38;75.73;102378.00;6102869;19;20034;-76
2023/02/26 02:57:50;;;;;;;3.83;2.20;;;;;;;0.32;75.81;102375.25;6102339;19;20011;-76
2023/02/26 02:59:59;;;;;;;9.60;2.25;;;;;;;0.25;76.31;102383.69;6102029;19;20010;-75
2023/02/26 03:02:12;;;;;;;4.18;1.80;;;;;;;0.20;76.20;102380.09;6098329;19;20037;-75
2023/02/26 03:04:19;;;;;;;5.43;2.33;;;;;;;0.15;76.71;102392.03;6099981;19;20533;-75
2023/02/26 03:06:24;;;;;;;3.15;1.75;;;;;;;0.10;76.29;102386.72;6098202;19;20014;-75
2023/02/26 03:08:34;;;;;;;8.13;2.08;;;;;;;0.03;76.48;102384.81;6100072;19;20014;-76
2023/02/26 03:10:41;;;;;;;3.70;1.58;;;;;;;0.06;76.24;102387.47;6101654;19;20014;-75
2023/02/26 03:12:46;;;;;;;3.72;2.00;;;;;;;-0.01;76.28;102391.59;6103355;19;20483;-75
2023/02/26 03:14:51;;;;;;;3.40;1.63;;;;;;;-0.06;76.55;102388.00;6094632;19;20514;-71
2023/02/26 03:17:22;;;;;;;3.13;1.40;;;;;;;-0.14;76.60;102394.66;6100571;19;20035;-74
2023/02/26 03:19:40;;;;;;;1.73;1.27;;;;;;;-0.21;76.86;102395.34;6100760;19;20008;-71
2023/02/26 03:21:51;;;;;;;5.10;1.52;;;;;;;-0.27;77.06;102395.16;6101569;19;20142;-71
2023/02/26 03:24:02;;;;;;;4.35;1.75;;;;;;;-0.31;76.92;102395.91;6102313;19;20011;-72
2023/02/26 03:26:15;;;;;;;6.10;1.98;;;;;;;-0.36;76.98;102397.47;6080145;19;20143;-71
2023/02/26 03:28:27;;;;;;;5.10;1.80;;;;;;;-0.44;76.79;102402.41;6098988;19;20018;-72
2023/02/26 03:30:37;;;;;;;3.65;2.00;;;;;;;-0.50;77.21;102397.94;6100568;19;20010;-72
2023/02/26 03:32:54;;;;;;;6.03;2.60;;;;;;;-0.49;77.11;102394.50;6101485;19;20017;-71
2023/02/26 03:35:05;;;;;;;8.00;2.30;;;;;;;-0.48;76.98;102398.84;6096020;19;20035;-72
2023/02/26 03:37:19;;;;;;;10.77;2.95;;;;;;;-0.31;76.38;102408.81;6101543;19;20010;-71
2023/02/26 03:39:30;;;;;;;5.50;2.47;;;;;;;-0.35;76.11;102399.22;6101108;19;20098;-71
2023/02/26 03:41:39;;;;;;;6.70;2.50;;;;;;;-0.34;76.42;102411.28;6102626;19;20015;-71
2023/02/26 03:43:49;;;;;;;4.00;1.88;;;;;;;-0.30;76.19;102411.44;6102513;19;20121;-72
2023/02/26 03:45:58;;;;;;;4.93;2.60;;;;;;;-0.26;75.67;102423.63;6102176;19;20007;-71
2023/02/26 03:48:09;;;;;;;6.95;2.47;;;;;;;-0.25;75.60;102419.31;6101234;19;20245;-75
2023/02/26 03:50:19;;;;;;;5.78;2.63;;;;;;;-0.23;75.61;102422.84;6099987;19;20014;-74
2023/02/26 03:52:27;;;;;;;3.63;2.13;;;;;;;-0.23;75.08;102425.41;6099648;19;20025;-72
2023/02/26 03:54:36;;;;;;;6.28;1.90;;;;;;;-0.23;75.25;102423.69;6098961;19;20014;-73
2023/02/26 03:56:44;;;;;;;5.05;2.30;;;;;;;-0.24;74.91;102423.63;6096125;19;20030;-73
2023/02/26 03:58:52;;;;;;;5.63;2.53;;;;;;;-0.28;74.79;102424.41;6093813;19;20086;-74
2023/02/26 04:01:03;;;;;;;6.13;2.22;;;;;;;-0.27;74.67;102432.19;6098051;19;20015;-75
2023/02/26 04:03:17;;;;;;;6.75;2.30;;;;;;;-0.23;74.69;102431.44;6095391;19;20026;-74
2023/02/26 04:05:27;;;;;;;4.72;2.30;;;;;;;-0.31;74.48;102430.34;6100087;19;20014;-75
2023/02/26 04:07:35;;;;;;;6.13;2.45;;;;;;;-0.33;74.35;102429.41;6096762;19;20022;-75
2023/02/26 04:09:43;;;;;;;3.40;1.90;;;;;;;-0.29;74.06;102432.97;6099098;19;20572;-75
2023/02/26 04:11:49;;;;;;;3.53;2.03;;;;;;;-0.25;74.38;102437.41;6097595;19;20011;-75
2023/02/26 04:13:55;;;;;;;2.47;1.30;;;;;;;-0.30;74.04;102441.56;6097645;19;20018;-75
2023/02/26 04:16:00;;;;;;;4.93;1.80;;;;;;;-0.30;74.40;102444.13;6073832;19;20011;-75
2023/02/26 04:18:05;;;;;;;4.43;1.55;;;;;;;-0.27;73.99;102454.56;6097208;19;20023;-75
2023/02/26 04:20:15;;;;;;;9.77;2.85;;;;;;;-0.19;73.74;102453.06;6099890;19;20015;-74
2023/02/26 04:22:22;;;;;;;5.28;2.53;;;;;;;-0.23;73.56;102457.28;6098781;19;20672;-72
2023/02/26 04:24:27;;;;;;;6.18;2.38;;;;;;;-0.21;72.93;102452.19;6099962;19;20032;-71
2023/02/26 04:26:35;;;;;;;5.10;2.30;;;;;;;-0.19;73.55;102458.25;6085354;19;20050;-72
2023/02/26 04:28:40;;;;;;;5.15;1.98;;;;;;;-0.18;73.42;102461.72;6102929;19;20106;-72
2023/02/26 04:30:45;;;;;;;5.10;2.38;;;;;;;-0.25;73.38;102469.28;6106489;19;20010;-74
2023/02/26 04:32:50;;;;;;;5.38;3.55;;;;;;;-0.24;73.40;102464.97;6101171;19;20020;-72
2023/02/26 04:34:55;;;;;;;3.67;2.10;;;;;;;-0.26;73.49;102467.53;6101861;19;20014;-73
2023/02/26 04:37:02;;;;;;;2.80;1.70;;;;;;;-0.27;73.58;102475.22;6105707;19;20006;-72
2023/02/26 04:39:09;;;;;;;3.08;1.63;;;;;;;-0.23;73.21;102471.91;6103145;19;20019;-73
2023/02/26 04:41:16;;;;;;;4.10;2.00;;;;;;;-0.24;73.20;102473.63;6099159;19;20019;-75
2023/02/26 04:43:21;;;;;;;2.08;1.67;;;;;;;-0.23;73.35;102471.91;6102313;19;20015;-72
2023/02/26 04:45:26;;;;;;;3.03;1.90;;;;;;;-0.26;73.41;102466.66;6101331;19;20090;-72
2023/02/26 04:47:31;;;;;;;4.80;2.47;;;;;;;-0.30;73.25;102464.81;6103583;19;20035;-72
2023/02/26 04:49:35;;;;;;;4.80;1.80;;;;;;;-0.33;73.89;102472.47;6102863;19;20021;-71
2023/02/26 04:51:40;;;;;;;2.67;1.50;;;;;;;-0.36;73.59;102480.13;6102549;19;20817;-71
2023/02/26 04:53:48;;;;;;;6.60;2.20;;;;;;;-0.36;73.45;102481.00;6100589;19;20042;-72
2023/02/26 04:55:52;;;;;;;2.08;1.50;;;;;;;-0.37;73.38;102488.69;6102846;19;20507;-72
2023/02/26 04:57:57;;;;;;;2.60;1.65;;;;;;;-0.37;73.61;102488.69;6101491;19;20006;-72
2023/02/26 05:00:05;;;;;;;4.95;1.73;;;;;;;-0.32;73.36;102487.13;6102738;19;20042;-71
2023/02/26 05:02:10;;;;;;;3.08;1.50;;;;;;;-0.32;73.39;102492.28;6103619;19;20007;-71
2023/02/26 05:04:15;;;;;;;3.33;1.50;;;;;;;-0.36;73.67;102490.44;6103693;19;20494;-72
2023/02/26 05:06:20;;;;;;;4.55;1.52;;;;;;;-0.32;73.36;102497.44;6105758;19;20015;-72
2023/02/26 05:08:25;;;;;;;5.38;1.80;;;;;;;-0.31;73.24;102500.09;6105877;19;20017;-71
2023/02/26 05:10:32;;;;;;;3.47;1.90;;;;;;;-0.38;73.42;102508.47;6101387;19;20106;-72
2023/02/26 05:12:38;;;;;;;8.15;2.08;;;;;;;-0.42;73.38;102505.75;6101580;19;20027;-75
2023/02/26 05:14:42;;;;;;;3.30;1.98;;;;;;;-0.47;73.74;102505.63;6104959;19;20014;-74
2023/02/26 05:16:47;;;;;;;5.88;1.88;;;;;;;-0.52;74.00;102502.88;6103337;19;20684;-76
2023/02/26 05:18:52;;;;;;;8.50;2.08;;;;;;;-0.59;74.29;102498.34;6097857;19;20815;-76
2023/02/26 05:20:58;;;;;;;5.28;1.52;;;;;;;-0.58;74.23;102504.38;6083620;19;20066;-72
2023/02/26 05:23:02;;;;;;;3.03;1.83;;;;;;;-0.62;74.57;102506.00;6100462;19;20407;-72
2023/02/26 05:25:08;;;;;;;4.05;1.88;;;;;;;-0.54;74.24;102511.41;6098555;19;20018;-77
2023/02/26 05:27:16;;;;;;;3.03;1.58;;;;;;;-0.55;74.38;102515.69;6102698;19;20090;-75
2023/02/26 05:29:21;;;;;;;6.35;1.98;;;;;;;-0.55;74.39;102514.81;6100022;19;20006;-74
2023/02/26 05:31:25;;;;;;;3.58;2.13;;;;;;;-0.57;74.42;102519.94;6099560;19;20018;-74
2023/02/26 05:33:30;;;;;;;9.30;2.30;;;;;;;-0.60;74.46;102525.00;6103585;19;20014;-73
2023/02/26 05:35:35;;;;;;;3.80;2.80;;;;;;;-0.58;74.35;102525.03;6102964;19;20016;-72
2023/02/26 05:37:43;;;;;;;7.90;2.30;;;;;;;-0.62;74.45;102536.97;6101317;19;20022;-72
2023/02/26 05:39:50;;;;;;;6.50;3.10;;;;;;;-0.71;74.68;102531.50;6104551;19;20010;-72
2023/02/26 05:41:55;;;;;;;7.75;2.38;;;;;;;-0.72;75.12;102528.03;6103905;19;20010;-72
2023/02/26 05:44:03;;;;;;;9.40;2.83;;;;;;;-0.65;74.87;102538.59;6103210;19;20014;-72
2023/02/26 05:46:08;;;;;;;8.25;2.50;;;;;;;-0.65;74.75;102541.16;6104750;19;20737;-74
2023/02/26 05:48:13;;;;;;;3.38;1.92;;;;;;;-0.69;75.03;102543.63;6100067;19;20014;-76
2023/02/26 05:50:21;;;;;;;2.80;1.75;;;;;;;-0.73;75.03;102562.44;6100524;19;20006;-76
2023/02/26 05:52:26;;;;;;;2.53;1.50;;;;;;;-0.83;75.38;102559.50;6093280;19;20101;-76
2023/02/26 05:54:31;;;;;;;2.15;1.60;;;;;;;-0.89;75.80;102553.28;6101857;19;20031;-76
2023/02/26 05:56:38;;;;;;;6.22;1.70;;;;;;;-0.94;75.98;102560.00;6099635;19;20078;-75
2023/02/26 05:58:43;;;;;;;3.92;1.67;;;;;;;-0.99;76.31;102563.25;6098858;19;20010;-76
2023/02/26 06:00:51;;;;;;;3.45;1.27;;;;;;;-0.98;76.00;102562.41;6081142;19;20082;-76
2023/02/26 06:02:56;;;;;;;5.55;1.95;;;;;;;-0.94;76.20;102556.56;6100077;19;20015;-74
2023/02/26 06:05:01;;;;;;;3.35;2.15;;;;;;;-0.94;75.82;102565.16;6101347;19;20451;-75
2023/02/26 06:07:06;;;;;;;3.83;1.77;;;;;;;-1.00;76.14;102562.38;6101282;19;20014;-75
2023/02/26 06:09:11;;;;;;;3.67;1.42;;;;;;;-0.99;76.01;102569.28;6098679;19;20557;-75
2023/02/26 06:11:16;;;;;;;5.28;1.85;;;;;;;-0.99;76.39;102571.00;6098598;19;20015;-75
2023/02/26 06:13:21;;;;;;;1.52;1.40;;;;;;;-0.92;75.97;102572.97;6097965;19;20006;-76
2023/02/26 06:15:26;;;;;;;6.55;2.53;;;;;;;-0.97;75.94;102580.53;6100704;19;20090;-74
2023/02/26 06:17:34;;;;;;;3.65;1.65;;;;;;;-1.03;76.54;102580.31;6101023;19;20010;-75
2023/02/26 06:19:39;;;;;;;2.88;1.70;;;;;;;-1.09;77.22;102577.53;6104137;19;20011;-75
2023/02/26 06:21:44;;;;;;;6.53;1.70;;;;;;;-1.11;76.75;102576.59;6105830;19;20064;-74
2023/02/26 06:23:49;;;;;;;3.33;1.48;;;;;;;-1.20;76.97;102587.47;6102633;19;20494;-75
2023/02/26 06:25:55;;;;;;;4.88;1.85;;;;;;;-1.25;77.46;102589.00;6102551;19;20825;-74
2023/02/26 06:27:59;;;;;;;6.75;1.80;;;;;;;-1.24;77.36;102597.59;6106158;19;20033;-75
2023/02/26 06:30:05;;;;;;;1.85;1.48;;;;;;;-1.26;77.83;102601.81;6102143;19;20011;-75
2023/02/26 06:32:10;;;;;;;2.03;1.40;;;;;;;-1.31;78.00;102609.41;6104019;19;22179;-75
2023/02/26 06:34:18;;;;;;;2.60;1.73;;;;;;;-1.33;78.06;102606.78;6102855;19;20010;-75
2023/02/26 06:36:22;;;;;;;3.05;1.52;;;;;;;-1.34;78.15;102620.50;6099139;19;20578;-75
2023/02/26 06:38:28;;;;;;;2.10;1.58;;;;;;;-1.26;78.46;102625.94;6093725;19;20014;-72
2023/02/26 06:40:33;;;;;;;5.40;1.77;;;;;;;-1.31;78.47;102630.06;6098161;19;20033;-72
2023/02/26 06:42:38;;;;;;;2.47;1.73;;;;;;;-1.34;78.71;102633.41;6099777;19;20034;-71
2023/02/26 06:44:43;;;;;;;3.50;1.83;;;;;;;-1.40;78.94;102637.44;6098373;19;20027;-72
2023/02/26 06:46:48;;;;;;;3.33;1.65;;;;;;;-1.47;78.89;102638.03;6078499;19;20024;-71
2023/02/26 06:48:53;;;;;;;2.90;1.70;;;;;;;-1.48;79.07;102639.72;6094706;19;20278;-72
2023/02/26 06:51:00;;;;;;;5.68;2.15;;;;;;;-1.53;79.13;102642.94;6079321;19;20404;-74
2023/02/26 06:53:08;;;;;;;7.38;3.17;;;;;;;-1.59;79.74;102641.00;6098445;19;20502;-73
2023/02/26 06:55:13;;;;;;;6.55;3.00;;;;;;;-1.55;79.82;102645.47;6080972;19;20493;-71
2023/02/26 06:57:18;;;;;;;5.30;2.70;;;;;;;-1.55;79.63;102653.22;6081460;19;20013;-72
2023/02/26 06:59:23;;;;;;;5.93;2.97;;;;;;;-1.50;79.67;102653.38;6099499;19;20952;-72
2023/02/26 07:01:31;;;;;;;5.03;2.70;;;;;;;-1.46;79.68;102657.84;6106615;19;20013;-73
2023/02/26 07:03:55;;;;;;;5.03;2.53;;;;;;;-1.44;79.33;102658.78;6084806;19;20009;-75
2023/02/26 07:06:12;;;;;;;5.03;2.80;;;;;;;-1.39;79.63;102665.88;6124057;19;20030;-75
2023/02/26 07:08:41;;;;;;;8.55;2.42;;;;;;;-1.37;79.43;102674.53;6126112;19;20015;-75
2023/02/26 07:10:53;;;;;;;10.20;2.80;;;;;;;-1.33;79.51;102671.25;6085392;19;20032;-74
2023/02/26 07:13:09;;;;;;;6.32;2.92;;;;;;;-1.35;79.19;102667.72;6093829;19;20463;-75
2023/02/26 07:15:20;;;;;;;5.72;2.88;;;;;;;-1.30;79.18;102677.34;6086292;19;20031;-75
2023/02/26 07:17:42;;;;;;;10.45;2.92;;;;;;;-1.24;79.21;102685.31;6117428;19;20006;-76
2023/02/26 07:19:55;;;;;;;9.20;3.20;;;;;;;-1.20;79.22;102684.59;6089379;19;20051;-75
2023/02/26 07:22:20;;;;;;;6.72;3.67;;;;;;;-1.20;79.30;102687.19;6112656;19;20023;-74
2023/02/26 07:24:43;;;;;;;8.80;3.78;;;;;;;-1.21;79.43;102695.72;6103844;19;20051;-76
2023/02/26 07:27:05;;;;;;;7.00;3.83;;;;;;;-1.22;79.30;102699.16;6108279;19;20029;-74
2023/02/26 07:29:31;;;;;;;10.18;3.50;;;;;;;-1.16;79.18;102707.09;6107467;19;20081;-75
2023/02/26 07:32:00;;;;;;;8.15;3.60;;;;;;;-1.14;78.82;102708.03;6082904;19;20060;-74
2023/02/26 07:34:19;;;;;;;7.63;3.55;;;;;;;-1.14;78.88;102700.31;6109228;19;20336;-74
2023/02/26 07:36:43;;;;;;;10.60;3.42;;;;;;;-1.13;78.88;102702.97;6053833;19;20011;-73
2023/02/26 07:39:28;;;;;;;;;;;;;;;;;;;;;
2023/02/26 07:42:04;;;;;;;5.40;2.08;;;;;;;-0.84;77.25;102725.47;6064697;19;20019;-75
2023/02/26 07:44:28;;;;;;;7.15;1.80;;;;;;;-0.75;76.66;102726.72;6098095;19;20091;-72
2023/02/26 07:46:54;;;;;;;2.55;1.63;;;;;;;-0.55;75.57;102718.81;6126442;19;20383;-72
2023/02/26 07:49:17;;;;;;;1.63;1.50;;;;;;;-0.46;74.57;102722.59;6081287;19;20027;-73
2023/02/26 07:51:30;;;;;;;6.70;1.80;;;;;;;-0.37;74.05;102723.72;6102921;19;20029;-75
2023/02/26 07:53:44;;;;;;;2.10;1.90;;;;;;;-0.29;73.79;102724.88;6078236;19;20007;-72
2023/02/26 07:56:09;;;;;;;3.90;1.58;;;;;;;-0.20;72.99;102730.38;6115634;19;20406;-73
2023/02/26 07:58:25;;;;;;;10.80;2.05;;;;;;;-0.12;72.34;102734.09;6116644;19;20010;-75
2023/02/26 08:00:53;;;;;;;1.80;1.70;;;;;;;-0.03;72.27;102721.50;6082355;19;20054;-73
2023/02/26 08:03:28;;;;;;;3.30;1.65;;;;;;;0.12;71.14;102733.16;6048361;19;20050;-72
2023/02/26 08:05:55;;;;;;;2.95;1.25;;;;;;;0.24;70.21;102733.56;6128915;19;20027;-72
2023/02/26 08:08:16;;;;;;;1.35;1.25;;;;;;;0.38;69.16;102731.41;6124141;19;20021;-72
2023/02/26 08:10:36;;;;;;;2.25;1.25;;;;;;;0.41;68.61;102736.69;6125457;19;20007;-72
2023/02/26 08:12:55;;;;;;;2.30;1.38;;;;;;;0.50;67.89;102738.66;6131474;19;20007;-75
2023/02/26 08:15:12;;;;;;;1.17;0.95;;;;;;;0.58;67.50;102740.69;6101454;19;20013;-73
2023/02/26 08:17:31;;;;;;;5.38;1.75;;;;;;;0.65;67.24;102745.19;6130029;19;20026;-72
2023/02/26 08:19:52;;;;;;;3.17;1.23;;;;;;;0.72;66.90;102742.81;6105287;19;20011;-75
2023/02/26 08:22:05;;;;;;;1.35;0.98;;;;;;;0.82;66.34;102750.91;6121534;19;20038;-72
2023/02/26 08:24:24;;;;;;;3.30;1.52;;;;;;;0.82;66.93;102750.03;6097228;19;20022;-72
2023/02/26 08:26:56;;;;;;;1.55;1.35;;;;;;;0.87;65.66;102757.09;6131500;19;20454;-76
2023/02/26 08:29:20;;;;;;;4.25;1.10;;;;;;;0.99;65.54;102758.28;6084812;19;20014;-75
2023/02/26 08:31:37;;;;;;;5.63;1.88;;;;;;;1.08;65.56;102753.41;6126368;19;20010;-73
2023/02/26 08:33:57;;;;;;;1.10;1.00;;;;;;;1.22;64.60;102766.75;6108715;19;20438;-76
2023/02/26 08:36:34;;;;;;;2.28;1.40;;;;;;;1.37;63.47;102755.94;6129963;19;20014;-76
2023/02/26 08:39:00;;;;;;;2.25;1.50;;;;;;;1.50;62.66;102768.38;6132621;19;20029;-73
2023/02/26 08:41:21;;;;;;;2.72;1.10;;;;;;;1.59;62.19;102768.66;6076041;19;20015;-76
2023/02/26 08:43:46;;;;;;;1.43;1.33;;;;;;;1.69;61.21;102767.22;6132488;19;20522;-76
2023/02/26 08:46:17;;;;;;;1.73;1.58;;;;;;;1.84;59.32;102771.91;6132005;19;20011;-76
2023/02/26 08:48:31;;;;;;;2.75;1.17;;;;;;;1.91;59.46;102777.28;6131110;19;20006;-76
2023/02/26 08:50:47;;;;;;;1.63;1.42;;;;;;;2.00;58.73;102779.25;6082757;19;20010;-74
2023/02/26 08:53:04;;;;;;;2.25;1.33;;;;;;;2.10;58.41;102791.59;6133475;19;20031;-75
2023/02/26 08:55:53;;;;;;;3.10;1.13;;;;;;;2.18;58.55;102789.22;6100102;19;20025;-73
2023/02/26 08:58:17;;;;;;;3.22;1.70;;;;;;;2.31;57.34;102798.19;6066326;19;20011;-76
2023/02/26 09:00:29;;;;;;;1.50;1.02;;;;;;;2.34;56.29;102799.16;6110363;19;20003;-73
2023/02/26 09:03:01;;;;;;;1.00;1.00;;;;;;;2.50;56.51;102804.69;6076693;19;20010;-76
2023/02/26 09:05:22;;;;;;;1.92;1.23;;;;;;;2.61;56.23;102814.53;6028009;19;20014;-73
2023/02/26 09:08:17;;;;;;;1.67;1.02;;;;;;;2.63;55.93;102802.47;6129064;19;20014;-73
2023/02/26 09:10:43;;;;;;;3.70;1.73;;;;;;;2.83;56.19;102812.44;6103373;19;20005;-73
2023/02/26 09:13:10;;;;;;;2.75;1.35;;;;;;;2.86;55.11;102820.28;6089207;19;20024;-73
2023/02/26 09:15:36;;;;;;;2.33;1.30;;;;;;;2.85;54.94;102814.22;6120196;19;20023;-76
2023/02/26 09:17:56;;;;;;;2.50;1.30;;;;;;;3.01;55.17;102820.63;6106305;19;20010;-75
2023/02/26 09:20:14;;;;;;;1.88;1.17;;;;;;;3.15;54.59;102812.28;6096108;19;20011;-72
2023/02/26 09:22:41;;;;;;;2.17;1.20;;;;;;;3.27;54.04;102830.75;6025712;19;20019;-72
2023/02/26 09:28:02;;;;;;;1.98;1.00;;;;;;;3.29;52.50;102839.41;6128254;19;20025;-73
2023/02/26 09:36:24;;;;;;;1.20;0.95;;;;;;;3.49;52.16;102845.94;5989622;19;20063;-77
2023/02/26 09:38:30;;;;;;;1.63;1.10;;;;;;;3.57;52.10;102846.09;6108378;19;20546;-76
2023/02/26 09:40:44;;;;;;;3.40;1.17;;;;;;;3.61;51.85;102849.66;6107236;19;20021;-75
2023/02/26 09:43:05;;;;;;;3.58;1.48;;;;;;;3.70;51.71;102853.28;6102608;19;20047;-74
2023/02/26 09:45:27;;;;;;;1.52;1.02;;;;;;;3.69;50.83;102848.09;6084928;19;20010;-76
2023/02/26 09:48:19;;;;;;;0.82;0.70;;;;;;;3.61;50.14;102854.84;6104821;19;20034;-73
2023/02/26 09:50:27;;;;;;;3.97;1.30;;;;;;;3.79;50.69;102860.44;6102485;19;20898;-76
2023/02/26 09:52:40;;;;;;;1.52;1.02;;;;;;;4.02;50.51;102867.78;6097908;19;20435;-76
2023/02/26 09:54:48;;;;;;;5.30;1.30;;;;;;;3.90;49.54;102864.09;6096759;19;20027;-75
2023/02/26 09:56:55;;;;;;;5.10;1.45;;;;;;;4.04;49.58;102871.31;6087623;19;20443;-72
2023/02/26 10:02:45;;;;;;;0.90;0.85;;;;;;;3.77;48.88;102874.25;5975420;19;20025;-73
2023/02/26 10:05:02;;;;;;;1.05;0.85;;;;;;;3.89;49.61;102871.88;6103459;19;20439;-72
2023/02/26 10:07:22;;;;;;;3.05;1.17;;;;;;;3.85;49.01;102876.16;6093936;19;20019;-72
2023/02/26 10:09:48;;;;;;;0.98;0.98;;;;;;;4.10;48.57;102890.50;6096619;19;20006;-73
2023/02/26 10:11:59;;;;;;;1.13;1.00;;;;;;;3.95;48.08;102888.50;6102769;19;20444;-72
2023/02/26 10:14:08;;;;;;;5.15;1.13;;;;;;;4.15;48.14;102896.66;6102289;19;20494;-72
2023/02/26 10:16:18;;;;;;;1.30;1.20;;;;;;;4.04;48.62;102890.38;6101219;19;20011;-72
2023/02/26 10:18:28;;;;;;;1.15;1.05;;;;;;;4.41;48.51;102901.50;6101725;19;20007;-72
2023/02/26 10:20:39;;;;;;;2.50;1.20;;;;;;;4.62;47.48;102891.44;6104462;19;20270;-72
2023/02/26 10:22:47;;;;;;;1.42;1.20;;;;;;;4.67;47.68;102896.75;6082812;19;20047;-72
2023/02/26 10:28:50;;;;;;;3.45;1.20;;;;;;;5.11;47.07;102912.22;6006550;19;20022;-76
2023/02/26 10:43:44;;;;;;;2.70;1.13;;;;;;;5.04;45.86;102912.97;6096560;19;20028;-71
2023/02/26 10:46:03;;;;;;;1.23;0.90;;;;;;;5.01;45.97;102908.59;6100690;19;20085;-70
2023/02/26 10:48:25;;;;;;;1.38;1.27;;;;;;;5.06;46.18;102916.50;6044397;19;20018;-75
2023/02/26 10:50:31;;;;;;;0.73;0.73;;;;;;;5.32;45.54;102918.59;6100827;19;20368;-75